Time;durP1;ratioP1;P1;durP2;ratioP2;P2;SDS_P1;SDS_P2;PMS_P1;PMS_P2;Temp;Humidity;BMP_temperature;BMP_pressure;BME280_temperature;BME280_humidity;BME280_pressure;Samples;Min_cycle;Max_cycle;Signal;HPM_P1;HPM_P2
2024/01/05 00:00:40;;;;;;;2.47;1.63;;;;;;;7.38;66.75;94287.72;5011615;28;20224;-89
2024/01/05 00:03:07;;;;;;;3.47;1.77;;;;;;;7.29;67.05;94281.19;5011913;28;20237;-89
2024/01/05 00:05:35;;;;;;;1.60;1.37;;;;;;;7.25;66.95;94285.88;5011352;28;20721;-89
2024/01/05 00:10:43;;;;;;;3.40;1.60;;;;;;;7.31;67.14;94268.19;5017319;28;20203;-88
2024/01/05 00:13:16;;;;;;;2.57;1.50;;;;;;;7.33;66.61;94264.44;5010876;28;20304;-88
2024/01/05 00:15:45;;;;;;;2.30;1.53;;;;;;;7.34;66.72;94250.66;5011321;28;20217;-88
2024/01/05 00:18:13;;;;;;;5.10;1.80;;;;;;;7.33;66.65;94245.72;5010938;28;20233;-89
2024/01/05 00:20:50;;;;;;;2.97;1.47;;;;;;;7.33;66.82;94249.06;5011274;28;20265;-89
2024/01/05 00:23:20;;;;;;;5.07;1.70;;;;;;;7.36;66.83;94246.16;5033939;28;20237;-89
2024/01/05 00:25:51;;;;;;;3.83;1.80;;;;;;;7.34;66.46;94237.06;5030411;28;20210;-88
2024/01/05 00:28:23;;;;;;;2.13;1.57;;;;;;;7.32;66.66;94234.69;5022917;28;20199;-89
2024/01/05 00:30:51;;;;;;;1.93;1.57;;;;;;;7.28;66.55;94239.44;5010677;28;20203;-87
2024/01/05 00:33:45;;;;;;;3.13;1.77;;;;;;;7.34;66.39;94235.31;5008784;28;20679;-88
2024/01/05 00:36:27;;;;;;;2.37;1.80;;;;;;;7.34;66.45;94224.28;5006662;28;20218;-89
2024/01/05 00:39:18;;;;;;;3.80;1.80;;;;;;;7.34;66.39;94226.84;5023874;28;20245;-89
2024/01/05 00:42:01;;;;;;;3.77;1.93;;;;;;;7.35;66.18;94220.72;5023091;28;20230;-88
2024/01/05 00:44:31;;;;;;;3.30;1.80;;;;;;;7.35;66.23;94221.53;5012424;28;20250;-88
2024/01/05 00:47:26;;;;;;;3.80;1.90;;;;;;;7.38;66.23;94218.59;5024179;28;20198;-88
2024/01/05 00:50:13;;;;;;;2.23;1.60;;;;;;;7.39;65.92;94204.00;4943154;29;20205;-87
2024/01/05 00:52:49;;;;;;;3.97;2.00;;;;;;;7.27;66.07;94204.56;4960864;28;20226;-89
2024/01/05 00:55:22;;;;;;;2.33;1.80;;;;;;;7.24;66.50;94199.03;5011207;28;20198;-89
2024/01/05 00:58:02;;;;;;;4.53;1.93;;;;;;;7.22;66.08;94198.44;4997475;28;20219;-89
2024/01/05 01:00:49;;;;;;;2.60;1.70;;;;;;;7.20;66.20;94197.81;5031610;28;20332;-88
2024/01/05 01:03:23;;;;;;;2.90;1.60;;;;;;;7.18;66.54;94189.53;5031167;28;20264;-89
2024/01/05 01:11:35;;;;;;;2.10;1.50;;;;;;;6.92;66.86;94182.53;5019068;28;20190;-88
2024/01/05 01:14:11;;;;;;;2.93;2.10;;;;;;;6.81;66.80;94196.63;5010988;28;20203;-89
2024/01/05 01:16:49;;;;;;;3.80;1.90;;;;;;;6.82;67.00;94199.97;5011109;28;20289;-88
2024/01/05 01:19:21;;;;;;;4.27;1.83;;;;;;;6.87;66.98;94198.44;5025248;28;20214;-88
2024/01/05 01:21:57;;;;;;;2.60;1.87;;;;;;;6.83;66.81;94191.31;5010050;28;20218;-88
2024/01/05 01:25:10;;;;;;;6.07;1.67;;;;;;;6.76;67.21;94208.38;5011116;28;20270;-88
2024/01/05 01:27:43;;;;;;;2.13;1.40;;;;;;;6.67;67.39;94212.09;5011909;28;20211;-87
2024/01/05 01:30:30;;;;;;;2.03;1.43;;;;;;;6.67;67.33;94205.19;4990939;28;20203;-88
2024/01/05 01:33:04;;;;;;;2.57;1.57;;;;;;;6.70;67.24;94194.59;5013611;28;20281;-88
2024/01/05 01:35:31;;;;;;;3.33;1.70;;;;;;;6.74;67.00;94192.44;5027560;28;20691;-88
2024/01/05 01:38:09;;;;;;;2.40;1.40;;;;;;;6.69;67.14;94189.66;5008968;28;20215;-87
2024/01/05 01:40:39;;;;;;;1.90;1.50;;;;;;;6.56;67.43;94186.03;5003741;28;20210;-87
2024/01/05 01:43:20;;;;;;;2.03;1.50;;;;;;;6.60;67.16;94191.56;4990086;28;20231;-88
2024/01/05 01:45:54;;;;;;;2.23;1.30;;;;;;;6.52;67.27;94178.94;5025095;28;20198;-88
2024/01/05 01:48:35;;;;;;;2.97;1.70;;;;;;;6.46;67.75;94187.34;5022690;28;20198;-88
2024/01/05 01:51:05;;;;;;;1.47;1.30;;;;;;;6.42;67.89;94194.59;5001515;28;20676;-88
2024/01/05 01:53:41;;;;;;;3.93;1.70;;;;;;;6.43;67.63;94206.38;5010838;28;20218;-87
2024/01/05 01:56:15;;;;;;;2.20;1.63;;;;;;;6.43;67.54;94191.06;5008824;28;20201;-88
2024/01/05 01:59:00;;;;;;;2.93;1.60;;;;;;;6.33;67.74;94188.03;5018943;28;20590;-87
2024/01/05 02:01:29;;;;;;;2.27;1.63;;;;;;;6.28;68.08;94195.47;5022095;28;20543;-87
2024/01/05 02:03:57;;;;;;;2.87;1.37;;;;;;;6.18;68.08;94212.84;5010002;28;20209;-88
2024/01/05 02:06:54;;;;;;;3.33;1.87;;;;;;;6.17;68.11;94209.50;5016856;28;20644;-87
2024/01/05 02:09:21;;;;;;;3.53;1.90;;;;;;;6.21;68.05;94200.50;5014070;28;20584;-87
2024/01/05 02:11:52;;;;;;;3.90;1.53;;;;;;;6.20;67.94;94198.94;5004314;28;20233;-87
2024/01/05 02:14:27;;;;;;;2.97;1.60;;;;;;;6.22;67.48;94184.19;5012274;28;20202;-87
2024/01/05 02:17:08;;;;;;;1.63;1.53;;;;;;;6.20;67.62;94170.03;5028788;28;20231;-87
2024/01/05 02:19:41;;;;;;;4.87;1.40;;;;;;;6.21;67.53;94164.72;5012198;28;20223;-87
2024/01/05 02:22:16;;;;;;;1.63;1.40;;;;;;;6.06;67.75;94158.91;5009018;28;20219;-88
2024/01/05 02:25:12;;;;;;;1.87;1.30;;;;;;;5.98;68.10;94169.25;5016575;28;20202;-88
2024/01/05 02:27:46;;;;;;;2.27;1.27;;;;;;;5.78;68.80;94179.25;5005283;28;20203;-88
2024/01/05 02:30:28;;;;;;;2.30;1.40;;;;;;;5.70;68.99;94186.25;5012956;28;20199;-87
2024/01/05 02:35:55;;;;;;;2.03;1.30;;;;;;;5.64;69.57;94197.16;5015805;28;20218;-88
2024/01/05 02:38:36;;;;;;;1.57;1.00;;;;;;;5.72;69.55;94195.31;5028689;28;20299;-88
2024/01/05 02:41:29;;;;;;;2.47;1.30;;;;;;;5.78;69.16;94191.22;5028755;28;20201;-87
2024/01/05 02:43:56;;;;;;;2.50;1.60;;;;;;;5.86;69.38;94178.34;5022531;28;20204;-87
2024/01/05 02:46:33;;;;;;;3.17;1.20;;;;;;;5.88;68.80;94171.28;5027644;28;20202;-86
2024/01/05 02:49:05;;;;;;;2.77;1.40;;;;;;;5.81;69.35;94165.31;5028859;28;20204;-87
2024/01/05 02:51:41;;;;;;;2.37;1.37;;;;;;;5.71;69.74;94167.41;5028363;28;20244;-87
2024/01/05 02:54:13;;;;;;;2.63;1.30;;;;;;;5.68;69.57;94163.44;5032771;28;20272;-87
2024/01/05 02:57:07;;;;;;;2.97;1.40;;;;;;;5.69;69.64;94156.56;5032919;28;20201;-88
2024/01/05 02:59:54;;;;;;;1.40;1.20;;;;;;;5.69;69.44;94152.25;5027394;28;20738;-87
2024/01/05 03:02:35;;;;;;;2.27;1.20;;;;;;;5.77;69.33;94144.47;5012913;28;20226;-88
2024/01/05 03:08:03;;;;;;;1.67;1.13;;;;;;;5.78;69.01;94127.38;5009136;28;20206;-87
2024/01/05 03:13:30;;;;;;;1.90;1.30;;;;;;;6.02;68.05;94068.28;5032106;28;20585;-88
2024/01/05 03:16:17;;;;;;;2.27;1.20;;;;;;;6.08;67.78;94059.88;5030733;28;20292;-88
2024/01/05 03:19:12;;;;;;;2.40;1.33;;;;;;;6.11;67.05;94020.41;5032077;28;20221;-87
2024/01/05 03:24:44;;;;;;;1.87;1.10;;;;;;;5.96;66.66;93976.31;5031611;28;20198;-88
2024/01/05 03:27:20;;;;;;;1.50;1.10;;;;;;;5.99;66.32;93976.69;5032053;28;20213;-88
2024/01/05 03:29:57;;;;;;;1.50;1.10;;;;;;;6.03;66.32;93962.56;5012128;28;20233;-88
2024/01/05 03:32:30;;;;;;;1.53;0.93;;;;;;;6.05;65.88;93947.06;5025183;28;20236;-87
2024/01/05 03:34:59;;;;;;;2.50;1.30;;;;;;;6.17;65.90;93948.88;5030972;28;20210;-87
2024/01/05 03:37:48;;;;;;;3.73;1.30;;;;;;;6.23;65.82;93945.59;5031301;28;20286;-88
2024/01/05 03:40:35;;;;;;;1.67;1.07;;;;;;;6.31;65.97;93925.97;5008249;28;20222;-88
2024/01/05 03:43:14;;;;;;;1.70;1.00;;;;;;;6.39;65.71;93929.13;5020487;28;20244;-87
2024/01/05 03:45:48;;;;;;;2.53;1.23;;;;;;;6.27;65.92;93929.88;5031681;28;20194;-87
2024/01/05 03:51:10;;;;;;;1.20;1.00;;;;;;;6.43;64.92;93898.88;5021866;28;20293;-87
2024/01/05 03:57:01;;;;;;;3.37;1.30;;;;;;;6.41;64.63;93872.72;5027422;28;20225;-88
2024/01/05 03:59:47;;;;;;;3.20;1.20;;;;;;;6.46;64.59;93862.69;5013282;28;20234;-88
2024/01/05 04:02:33;;;;;;;2.17;1.43;;;;;;;6.49;64.28;93840.09;5031044;28;20226;-87
2024/01/05 04:05:26;;;;;;;1.73;1.30;;;;;;;6.43;63.80;93833.19;5028951;28;20210;-87
2024/01/05 04:08:13;;;;;;;1.87;1.30;;;;;;;6.45;64.11;93838.13;5032257;28;20198;-88
2024/01/05 04:10:46;;;;;;;1.50;1.07;;;;;;;6.54;64.19;93827.50;5031573;28;20564;-87
2024/01/05 04:13:24;;;;;;;1.87;1.20;;;;;;;6.62;64.37;93807.84;5018427;23;20223;-87
2024/01/05 04:16:00;;;;;;;2.43;1.27;;;;;;;6.68;64.54;93825.75;4974110;28;20270;-88
2024/01/05 04:19:10;;;;;;;2.13;1.20;;;;;;;6.69;64.03;93799.22;4991789;28;20203;-88
2024/01/05 04:21:46;;;;;;;2.07;0.90;;;;;;;6.67;63.90;93774.81;4988361;28;20222;-87
2024/01/05 04:24:21;;;;;;;1.77;1.17;;;;;;;6.61;63.29;93752.59;4991062;28;20653;-88
2024/01/05 04:26:58;;;;;;;1.10;1.00;;;;;;;6.44;63.24;93726.63;4991929;28;20241;-89
2024/01/05 04:29:47;;;;;;;3.20;2.80;;;;;;;6.27;63.22;93739.00;4992145;28;20202;-87
2024/01/05 04:32:27;;;;;;;1.63;1.03;;;;;;;6.15;63.73;93748.25;4989918;28;20223;-88
2024/01/05 04:34:54;;;;;;;2.60;1.07;;;;;;;6.12;63.37;93751.97;4989877;28;20241;-87
2024/01/05 04:37:21;;;;;;;1.53;1.00;;;;;;;6.22;63.40;93764.34;4990135;28;20203;-90
2024/01/05 04:39:56;;;;;;;1.40;0.90;;;;;;;6.22;62.96;93751.56;4990668;28;20223;-87
2024/01/05 04:42:32;;;;;;;0.93;0.90;;;;;;;6.28;63.24;93750.03;4990779;28;20219;-87
2024/01/05 04:45:26;;;;;;;1.10;1.00;;;;;;;6.34;63.22;93741.59;4991251;28;20199;-87
2024/01/05 04:50:57;;;;;;;2.97;1.27;;;;;;;6.46;62.74;93730.56;4982494;28;20286;-88
2024/01/05 04:53:32;;;;;;;0.87;0.87;;;;;;;6.52;62.97;93745.13;4975578;28;20227;-88
2024/01/05 05:01:44;;;;;;;1.93;1.03;;;;;;;6.70;62.75;93746.31;4987993;28;20730;-89
2024/01/05 05:04:26;;;;;;;1.90;1.20;;;;;;;6.67;63.01;93739.03;4992799;28;20211;-87
2024/01/05 05:07:17;;;;;;;2.10;1.20;;;;;;;6.65;63.01;93754.56;4991057;28;20207;-88
2024/01/05 05:10:14;;;;;;;;;;;;;;;;;;;;;
2024/01/05 05:13:02;;;;;;;2.60;1.60;;;;;;;6.60;63.08;93767.13;4970849;28;20312;-87
2024/01/05 05:15:37;;;;;;;1.53;1.10;;;;;;;6.57;63.20;93754.75;4988987;28;20283;-89
2024/01/05 05:21:35;;;;;;;;;;;;;;;;;;;;;
2024/01/05 05:24:38;;;;;;;1.60;1.10;;;;;;;6.49;63.24;93777.97;4973715;28;20222;-88
2024/01/05 05:27:37;;;;;;;1.40;1.07;;;;;;;6.56;63.21;93786.41;4970514;28;20662;-88
2024/01/05 05:30:09;;;;;;;3.23;1.10;;;;;;;6.57;63.48;93791.31;4960938;28;20211;-87
2024/01/05 05:32:36;;;;;;;2.10;1.00;;;;;;;6.63;63.72;93815.31;4990089;28;20219;-87
2024/01/05 05:35:26;;;;;;;1.33;1.10;;;;;;;6.65;63.44;93795.47;4989492;28;20692;-87
2024/01/05 05:38:14;;;;;;;2.23;1.10;;;;;;;6.64;63.99;93798.22;4986123;28;20744;-88
2024/01/05 05:40:41;;;;;;;1.80;1.30;;;;;;;6.49;63.85;93811.97;4988751;28;20219;-86
2024/01/05 05:49:05;;;;;;;;;;;;;;;;;;;;;
2024/01/05 05:51:46;;;;;;;3.07;1.40;;;;;;;6.09;65.10;93820.53;4987068;28;20199;-87
2024/01/05 05:54:32;;;;;;;1.77;1.23;;;;;;;6.14;65.39;93826.66;4987926;28;20219;-86
2024/01/05 05:57:01;;;;;;;1.50;1.30;;;;;;;6.21;64.83;93829.22;4985479;28;20207;-88
2024/01/05 05:59:31;;;;;;;2.53;1.30;;;;;;;6.27;64.72;93832.78;4989336;28;20719;-88
2024/01/05 06:02:08;;;;;;;4.20;1.50;;;;;;;6.24;64.52;93834.72;4989164;28;20633;-87
2024/01/05 06:04:43;;;;;;;2.20;1.30;;;;;;;6.20;64.42;93807.97;4990651;28;20307;-87
2024/01/05 06:07:13;;;;;;;1.60;1.20;;;;;;;6.21;64.15;93812.13;4989828;28;20286;-87
2024/01/05 06:10:01;;;;;;;1.57;1.20;;;;;;;6.18;64.08;93786.94;4990007;28;20897;-88
2024/01/05 06:12:28;;;;;;;1.53;1.40;;;;;;;6.25;63.68;93779.31;4987219;28;20223;-88
2024/01/05 06:17:47;;;;;;;1.30;1.20;;;;;;;6.24;63.51;93795.63;4907714;29;20668;-86
2024/01/05 06:20:28;;;;;;;2.07;1.40;;;;;;;6.15;66.11;93892.09;4976862;28;20226;-87
2024/01/05 06:23:03;;;;;;;3.00;1.60;;;;;;;6.23;65.23;93888.56;4988665;28;20223;-88
2024/01/05 06:25:36;;;;;;;2.30;1.70;;;;;;;6.36;64.76;93868.16;4987638;28;20199;-87
2024/01/05 06:28:03;;;;;;;2.70;1.60;;;;;;;6.44;64.24;93847.56;4987691;28;20218;-87
2024/01/05 06:30:29;;;;;;;1.60;1.30;;;;;;;6.48;63.38;93832.63;4984538;28;20207;-87
2024/01/05 06:33:12;;;;;;;6.43;2.30;;;;;;;6.50;63.98;93846.78;4988623;28;20214;-87
2024/01/05 06:35:39;;;;;;;2.70;1.67;;;;;;;6.51;64.11;93820.25;4988489;28;20568;-87
2024/01/05 06:38:05;;;;;;;5.00;1.43;;;;;;;6.43;65.86;93924.44;4988783;28;20203;-86
2024/01/05 06:40:56;;;;;;;2.03;1.67;;;;;;;6.42;65.57;93927.97;4988187;28;20215;-87
2024/01/05 06:43:23;;;;;;;2.20;1.53;;;;;;;6.45;65.38;93917.34;4984970;28;20325;-88
2024/01/05 06:45:52;;;;;;;5.07;1.83;;;;;;;6.35;66.17;93952.72;4988349;28;20210;-88
2024/01/05 06:48:40;;;;;;;2.37;1.83;;;;;;;6.39;65.58;93947.03;4990226;28;20580;-88
2024/01/05 06:51:35;;;;;;;4.23;1.70;;;;;;;6.37;65.48;93923.41;4960871;28;20208;-88
2024/01/05 06:54:26;;;;;;;2.63;1.70;;;;;;;6.38;65.81;93942.88;4989308;28;20207;-87
2024/01/05 06:56:57;;;;;;;1.90;1.50;;;;;;;6.38;64.52;93903.75;4970443;28;20234;-88
2024/01/05 06:59:26;;;;;;;5.40;1.50;;;;;;;6.34;64.57;93885.50;4990710;28;20232;-87
2024/01/05 07:02:00;;;;;;;5.17;4.23;;;;;;;6.37;64.24;93892.75;4982814;28;20255;-86
2024/01/05 07:04:40;;;;;;;;;;;;;;;;;;;;;
2024/01/05 07:07:08;;;;;;;3.03;1.97;;;;;;;6.38;64.38;93884.09;4989121;28;20810;-88
2024/01/05 07:09:47;;;;;;;2.87;2.00;;;;;;;6.36;64.62;93892.94;4990768;28;20290;-86
2024/01/05 07:12:24;;;;;;;2.10;1.53;;;;;;;6.31;64.28;93873.09;4990414;28;20222;-87
2024/01/05 07:14:54;;;;;;;2.97;1.70;;;;;;;6.33;64.40;93883.13;4990504;28;20207;-89
2024/01/05 07:17:21;;;;;;;1.97;1.77;;;;;;;6.33;64.71;93889.03;4988444;28;20227;-89
2024/01/05 07:19:50;;;;;;;2.83;2.00;;;;;;;6.31;64.55;93905.53;4989889;28;20322;-88
2024/01/05 07:22:18;;;;;;;3.30;1.90;;;;;;;6.31;64.91;93910.63;4990581;28;20226;-88
2024/01/05 07:24:45;;;;;;;2.43;1.87;;;;;;;6.31;64.81;93911.41;4991192;28;20207;-89
2024/01/05 07:27:12;;;;;;;3.07;1.80;;;;;;;6.37;64.88;93918.31;4990841;28;20195;-88
2024/01/05 07:29:51;;;;;;;8.03;5.53;;;;;;;6.35;64.70;93919.50;4990195;28;20662;-89
2024/01/05 07:32:38;;;;;;;7.40;4.53;;;;;;;6.42;64.49;93920.28;4990154;28;20779;-88
2024/01/05 07:35:17;;;;;;;2.63;2.00;;;;;;;6.42;64.61;93902.41;4985633;28;20286;-87
2024/01/05 07:37:50;;;;;;;4.20;2.43;;;;;;;6.45;64.61;93894.34;4990671;28;20545;-88
2024/01/05 07:40:22;;;;;;;4.50;2.33;;;;;;;6.36;64.32;93893.72;4993383;28;20315;-87
2024/01/05 07:42:57;;;;;;;4.13;2.70;;;;;;;6.39;64.36;93877.22;4993926;28;20229;-87
2024/01/05 07:48:23;;;;;;;3.53;2.60;;;;;;;6.48;63.88;93853.06;4993540;28;20266;-87
2024/01/05 07:51:10;;;;;;;4.17;2.60;;;;;;;6.56;63.93;93843.44;4991465;28;20299;-88
2024/01/05 07:53:45;;;;;;;4.00;2.40;;;;;;;6.61;63.96;93842.84;4973418;28;20232;-87
2024/01/05 07:56:14;;;;;;;3.60;2.77;;;;;;;6.63;63.80;93832.44;4986042;28;20252;-88
2024/01/05 07:58:44;;;;;;;2.63;2.03;;;;;;;6.67;64.40;93870.22;4993092;28;20199;-87
2024/01/05 08:01:22;;;;;;;5.23;2.67;;;;;;;6.63;65.16;93909.94;4992927;28;20362;-86
2024/01/05 08:03:51;;;;;;;4.17;2.43;;;;;;;6.61;64.69;93903.44;4993001;28;20734;-87
2024/01/05 08:06:24;;;;;;;2.90;2.03;;;;;;;6.50;63.83;93859.56;4991062;28;20242;-88
2024/01/05 08:08:51;;;;;;;2.03;1.73;;;;;;;6.47;63.79;93844.63;4993086;28;20208;-87
2024/01/05 08:11:18;;;;;;;1.73;1.43;;;;;;;6.46;63.30;93811.56;4992788;28;20192;-88
2024/01/05 08:13:47;;;;;;;3.70;1.50;;;;;;;6.44;63.21;93811.75;5007306;28;20303;-87
2024/01/05 08:16:13;;;;;;;1.50;1.40;;;;;;;6.49;63.23;93819.66;4999616;28;20227;-87
2024/01/05 08:19:04;;;;;;;3.30;1.50;;;;;;;6.55;63.16;93818.06;4991996;28;20565;-86
2024/01/05 08:21:34;;;;;;;2.37;1.70;;;;;;;6.63;63.43;93830.66;4983280;28;21260;-85
2024/01/05 08:24:10;;;;;;;8.17;7.00;;;;;;;6.69;63.05;93822.22;4988172;28;20203;-87
2024/01/05 08:33:21;;;;;;;2.87;1.77;;;;;;;6.79;62.30;93766.34;4930071;29;20242;-87
2024/01/05 08:35:48;;;;;;;1.73;1.63;;;;;;;6.78;61.82;93759.66;4931494;29;20606;-87
2024/01/05 08:38:16;;;;;;;1.73;1.60;;;;;;;6.80;61.59;93744.13;4930706;29;20210;-87
2024/01/05 08:40:45;;;;;;;2.33;1.77;;;;;;;6.85;61.61;93752.00;4931311;28;20263;-86
2024/01/05 08:43:12;;;;;;;2.80;2.10;;;;;;;6.81;61.17;93733.69;4994444;28;20696;-87
2024/01/05 08:45:58;;;;;;;1.97;1.70;;;;;;;6.85;60.95;93716.19;4993106;28;20226;-88
2024/01/05 08:48:28;;;;;;;1.47;1.30;;;;;;;6.91;61.39;93733.28;4992788;28;20207;-88
2024/01/05 08:54:29;;;;;;;2.07;1.60;;;;;;;6.98;61.00;93723.81;4930072;29;20217;-86
2024/01/05 08:56:56;;;;;;;2.17;1.50;;;;;;;6.94;61.38;93733.66;4930835;29;20646;-88
2024/01/05 08:59:23;;;;;;;2.87;1.80;;;;;;;6.98;61.72;93746.06;4930649;29;20257;-87
2024/01/05 09:02:07;;;;;;;;;;;;;;;;;;;;;
2024/01/05 09:12:08;;;;;;;1.40;1.30;;;;;;;7.10;61.08;93740.16;4856751;29;20295;-87
2024/01/05 09:22:22;;;;;;;1.93;1.70;;;;;;;7.22;60.92;93730.84;4664081;30;20235;-88
2024/01/05 09:26:02;;;;;;;3.30;1.40;;;;;;;7.28;61.06;93732.63;4660036;30;20302;-87
2024/01/05 09:31:45;;;;;;;2.40;1.73;;;;;;;7.34;61.08;93748.13;4834711;29;20748;-88
2024/01/05 09:34:12;;;;;;;3.80;1.60;;;;;;;7.37;60.85;93725.50;4950058;28;20208;-87
2024/01/05 09:36:44;;;;;;;2.40;1.70;;;;;;;7.37;61.02;93734.94;4967416;28;20208;-86
2024/01/05 09:39:12;;;;;;;1.60;1.50;;;;;;;7.35;60.57;93704.41;4990560;28;20206;-88
2024/01/05 09:41:42;;;;;;;2.83;1.50;;;;;;;7.40;60.40;93704.59;4990113;28;20697;-88
2024/01/05 09:44:11;;;;;;;2.50;1.67;;;;;;;7.37;60.20;93693.97;4991456;28;20622;-88
2024/01/05 09:46:53;;;;;;;2.40;1.63;;;;;;;7.43;60.33;93688.84;4987168;28;20239;-88
2024/01/05 09:49:44;;;;;;;1.50;1.37;;;;;;;7.47;60.23;93684.13;4990766;28;20208;-89
2024/01/05 10:21:32;;;;;;;3.73;2.03;;;;;;;8.01;59.02;93598.25;4795790;29;20596;-86
2024/01/05 10:31:41;;;;;;;4.07;2.50;;;;;;;8.14;59.75;93616.09;4932238;28;20197;-86
2024/01/05 10:51:10;;;;;;;4.40;1.73;;;;;;;8.42;58.49;93559.28;4947154;29;20589;-87
2024/01/05 11:03:57;;;;;;;3.07;1.83;;;;;;;8.59;57.63;93504.66;4881822;29;20230;-86
2024/01/05 11:06:38;;;;;;;5.27;1.80;;;;;;;8.65;57.62;93513.28;4910707;28;20383;-86
2024/01/05 11:09:26;;;;;;;3.43;1.70;;;;;;;8.73;57.88;93519.88;4983091;28;20262;-86
2024/01/05 11:12:22;;;;;;;2.00;1.60;;;;;;;8.79;57.82;93513.88;4989137;28;20692;-86
2024/01/05 11:18:41;;;;;;;1.93;1.73;;;;;;;8.84;57.24;93468.63;4990900;28;20230;-86
2024/01/05 11:21:19;;;;;;;3.07;1.47;;;;;;;8.85;56.87;93449.66;4993936;28;20228;-86
2024/01/05 11:26:49;;;;;;;2.50;1.80;;;;;;;9.00;57.02;93454.41;4986091;28;20204;-86
2024/01/05 11:29:58;;;;;;;2.87;1.63;;;;;;;9.07;56.62;93442.25;4994607;28;20614;-86
2024/01/05 11:32:39;;;;;;;3.63;1.83;;;;;;;9.15;56.64;93423.97;5002059;28;20238;-83
2024/01/05 11:35:43;;;;;;;2.37;1.63;;;;;;;9.19;56.56;93445.63;5009525;28;20203;-82
2024/01/05 11:38:28;;;;;;;2.00;1.60;;;;;;;9.25;56.37;93408.78;4978329;28;20200;-82
2024/01/05 11:40:59;;;;;;;1.80;1.70;;;;;;;9.29;56.51;93416.84;5002073;28;20207;-86
2024/01/05 11:43:50;;;;;;;6.23;2.07;;;;;;;9.34;56.67;93406.69;5011327;28;20311;-86
2024/01/05 11:49:48;;;;;;;3.30;2.27;;;;;;;9.33;56.47;93400.00;4945750;28;20251;-86
2024/01/05 11:52:39;;;;;;;2.67;1.90;;;;;;;9.27;56.54;93409.34;4991927;28;20224;-86
2024/01/05 11:55:19;;;;;;;3.43;1.60;;;;;;;9.28;56.52;93402.44;4966857;28;20286;-86
2024/01/05 11:57:58;;;;;;;4.60;1.73;;;;;;;9.34;56.13;93386.16;4994636;28;20211;-87
2024/01/05 12:03:32;;;;;;;3.10;1.87;;;;;;;9.41;56.06;93378.34;4968543;28;20306;-86
2024/01/05 12:06:17;;;;;;;3.30;1.87;;;;;;;9.53;56.21;93386.81;4994263;28;20661;-88
2024/01/05 12:08:46;;;;;;;3.10;1.93;;;;;;;9.63;56.26;93390.38;4994033;28;20278;-87
2024/01/05 12:11:15;;;;;;;2.77;2.07;;;;;;;9.74;56.23;93409.38;4989572;28;20257;-87
2024/01/05 12:14:06;;;;;;;2.73;1.80;;;;;;;9.66;55.67;93361.69;4988028;28;20310;-87
2024/01/05 12:21:03;;;;;;;6.33;3.10;;;;;;;9.76;55.96;93363.69;4835188;29;20213;-86
2024/01/05 12:26:06;;;;;;;2.03;1.60;;;;;;;9.83;55.78;93337.84;5003921;23;20286;-87
2024/01/05 12:28:34;;;;;;;3.03;1.77;;;;;;;9.89;55.80;93350.59;4985251;28;20197;-86
2024/01/05 12:31:32;;;;;;;1.60;1.50;;;;;;;9.90;55.40;93328.25;4978543;28;20795;-87
2024/01/05 12:34:15;;;;;;;3.60;1.60;;;;;;;9.95;55.68;93339.41;4969442;28;20215;-88
2024/01/05 12:36:44;;;;;;;1.70;1.60;;;;;;;9.95;55.61;93326.56;4972154;28;20181;-87
2024/01/05 12:39:12;;;;;;;2.97;2.10;;;;;;;9.94;55.73;93326.78;4972136;28;20597;-87
2024/01/05 12:42:01;;;;;;;2.97;1.80;;;;;;;9.93;55.84;93333.72;4971921;28;20219;-87
2024/01/05 12:44:27;;;;;;;2.33;1.90;;;;;;;9.90;55.84;93330.81;4974955;28;20271;-84
2024/01/05 12:46:55;;;;;;;2.10;1.90;;;;;;;9.86;56.43;93352.81;4976236;28;20212;-83
2024/01/05 12:49:23;;;;;;;3.10;2.20;;;;;;;9.79;56.76;93376.09;4978328;28;20705;-84
2024/01/05 12:51:50;;;;;;;3.23;2.03;;;;;;;9.71;56.75;93381.56;4973245;28;20651;-87
2024/01/05 12:54:26;;;;;;;2.97;2.27;;;;;;;9.68;56.76;93382.00;4971793;28;20291;-87
2024/01/05 12:56:54;;;;;;;3.50;2.80;;;;;;;9.69;56.67;93378.44;4971268;28;20207;-87
2024/01/05 12:59:21;;;;;;;2.47;1.70;;;;;;;9.69;56.77;93376.66;4970139;28;20212;-86
2024/01/05 13:02:05;;;;;;;3.90;1.70;;;;;;;9.72;56.82;93385.69;4971088;28;20228;-87
2024/01/05 13:04:36;;;;;;;2.37;1.53;;;;;;;9.71;56.61;93391.84;4970858;28;20207;-86
2024/01/05 13:07:12;;;;;;;2.60;1.70;;;;;;;9.68;56.93;93421.31;4971464;28;20196;-85
2024/01/05 13:09:47;;;;;;;2.13;1.70;;;;;;;9.65;56.74;93408.13;4970780;28;20258;-87
2024/01/05 13:12:13;;;;;;;2.13;1.93;;;;;;;9.65;56.67;93415.84;4974761;28;20220;-86
2024/01/05 13:14:40;;;;;;;2.97;2.00;;;;;;;9.59;57.21;93447.59;4979663;28;20255;-87
2024/01/05 13:17:08;;;;;;;2.00;1.80;;;;;;;9.58;57.30;93444.22;4975297;28;20232;-86
2024/01/05 13:19:36;;;;;;;2.80;1.77;;;;;;;9.65;57.14;93438.97;4970896;28;20204;-86
2024/01/05 13:22:23;;;;;;;2.57;1.70;;;;;;;9.69;56.88;93443.44;4970269;28;20220;-88
2024/01/05 13:25:31;;;;;;;3.77;2.00;;;;;;;9.70;57.12;93467.34;4969855;28;20211;-87
2024/01/05 13:28:08;;;;;;;7.40;1.90;;;;;;;9.70;57.32;93486.13;4970688;28;20231;-87
2024/01/05 13:30:42;;;;;;;3.03;1.83;;;;;;;9.70;57.40;93488.69;4969717;28;20199;-87
2024/01/05 13:33:11;;;;;;;2.70;1.73;;;;;;;9.68;57.67;93502.75;4969757;28;20248;-86
2024/01/05 13:35:47;;;;;;;1.63;1.53;;;;;;;9.69;58.01;93530.81;4971273;28;20670;-87
2024/01/05 13:38:13;;;;;;;3.30;1.87;;;;;;;9.71;58.01;93533.16;4970295;28;20188;-88
2024/01/05 13:40:41;;;;;;;2.73;2.00;;;;;;;9.69;57.74;93542.88;4970147;28;20211;-87
2024/01/05 13:43:08;;;;;;;5.00;1.80;;;;;;;9.70;58.36;93550.34;4970140;28;20633;-87
2024/01/05 13:45:35;;;;;;;3.33;1.77;;;;;;;9.70;58.24;93563.19;4969947;28;20271;-88
2024/01/05 13:48:12;;;;;;;4.50;3.63;;;;;;;9.70;59.23;93608.66;4969558;28;20200;-88
2024/01/05 13:50:38;;;;;;;3.73;2.90;;;;;;;9.67;59.71;93656.13;4970222;28;20207;-87
2024/01/05 13:53:10;;;;;;;4.90;2.93;;;;;;;9.62;61.40;93737.44;5001067;23;20273;-88
2024/01/05 13:55:37;;;;;;;6.63;2.90;;;;;;;9.61;61.83;93771.84;5008816;28;20688;-87
2024/01/05 13:58:10;;;;;;;3.40;2.13;;;;;;;9.56;63.47;93866.75;5012389;28;20576;-87
2024/01/05 14:00:36;;;;;;;3.57;2.20;;;;;;;9.50;64.27;93900.97;5009245;28;20207;-87
2024/01/05 14:03:03;;;;;;;3.00;2.07;;;;;;;9.40;66.34;93981.09;5009403;28;20227;-87
2024/01/05 14:05:31;;;;;;;2.50;2.00;;;;;;;9.37;66.82;94014.09;5007937;28;20202;-88
2024/01/05 14:07:57;;;;;;;4.60;2.00;;;;;;;9.37;67.06;94032.88;5009270;28;20199;-88
2024/01/05 14:10:24;;;;;;;5.77;2.27;;;;;;;9.38;67.56;94057.56;5005821;28;20673;-87
2024/01/05 14:13:32;;;;;;;2.83;2.30;;;;;;;9.37;69.00;94089.38;4988814;28;20227;-88
2024/01/05 14:15:59;;;;;;;3.50;2.53;;;;;;;9.40;69.14;94106.94;4974897;28;20705;-88
2024/01/05 14:18:25;;;;;;;3.27;2.23;;;;;;;9.40;69.77;94124.94;4989071;28;20302;-87
2024/01/05 14:20:53;;;;;;;3.07;2.60;;;;;;;9.41;71.38;94175.31;4999948;28;20207;-88
2024/01/05 14:23:19;;;;;;;3.63;2.97;;;;;;;9.34;74.47;94252.38;4998922;28;20245;-87
2024/01/05 14:25:49;;;;;;;5.60;2.93;;;;;;;9.33;74.08;94235.38;4997175;28;20553;-88
2024/01/05 14:28:23;;;;;;;4.83;2.70;;;;;;;9.28;74.67;94250.59;4989627;28;20195;-87
2024/01/05 14:34:08;;;;;;;;;;;;;;;;;;;;;
2024/01/05 14:36:51;;;;;;;5.50;2.70;;;;;;;9.22;77.27;94313.03;4995094;28;20195;-88
2024/01/05 14:39:32;;;;;;;18.60;13.57;;;;;;;9.21;77.87;94326.09;5008970;28;20203;-88
2024/01/05 14:42:00;;;;;;;8.23;7.10;;;;;;;9.21;78.21;94339.72;5008185;28;20244;-88
2024/01/05 14:44:26;;;;;;;7.07;3.30;;;;;;;9.19;79.15;94356.31;5009218;28;20231;-88
2024/01/05 14:47:13;;;;;;;3.23;2.40;;;;;;;9.19;79.71;94362.22;5008595;28;20203;-88
2024/01/05 14:49:51;;;;;;;4.73;2.43;;;;;;;9.18;79.94;94367.56;5007900;28;20213;-88
2024/01/05 14:52:43;;;;;;;3.33;2.30;;;;;;;9.14;80.51;94376.63;5006792;28;20226;-87
2024/01/05 14:57:50;;;;;;;4.13;2.07;;;;;;;9.12;81.84;94402.50;4988753;28;20724;-87
2024/01/05 15:00:19;;;;;;;4.13;1.90;;;;;;;9.13;81.29;94380.97;4988797;28;20203;-87
2024/01/05 15:02:45;;;;;;;3.23;1.80;;;;;;;9.15;81.40;94391.06;4989580;28;20231;-87
2024/01/05 15:05:27;;;;;;;3.53;2.40;;;;;;;9.10;83.57;94437.84;4989312;28;20762;-88
2024/01/05 15:07:55;;;;;;;2.47;1.53;;;;;;;9.08;84.03;94439.81;4990543;28;20294;-87
2024/01/05 15:10:22;;;;;;;2.83;1.80;;;;;;;9.09;83.81;94427.78;5006398;28;20217;-87
2024/01/05 15:12:51;;;;;;;2.53;1.90;;;;;;;9.08;83.97;94432.13;4988655;28;20306;-88
2024/01/05 15:15:17;;;;;;;3.50;1.70;;;;;;;9.06;84.68;94441.00;4988897;28;20219;-87
2024/01/05 15:17:44;;;;;;;2.17;1.60;;;;;;;9.04;85.10;94450.69;4988774;28;20218;-87
2024/01/05 15:20:13;;;;;;;4.60;1.60;;;;;;;8.96;86.10;94461.94;5002189;28;20214;-87